createdAt,value
2019-01-21T00:02:33.567Z,22.23
2019-01-21T00:07:39.584Z,21.35
2019-01-21T00:12:45.737Z,23.67
2019-01-21T00:17:51.714Z,23.12
2019-01-21T00:22:57.494Z,21.60
2019-01-21T00:28:03.557Z,22.13
2019-01-21T00:33:09.315Z,24.98
2019-01-21T00:38:15.233Z,20.23
2019-01-21T00:43:21.070Z,23.37
2019-01-21T00:48:27.467Z,22.20
2019-01-21T00:53:33.522Z,21.73
2019-01-21T00:58:39.494Z,21.13
2019-01-21T01:03:45.713Z,20.90
2019-01-21T01:08:51.949Z,24.25
2019-01-21T01:13:58.030Z,23.30
2019-01-21T01:19:04.030Z,27.57
2019-01-21T01:24:09.969Z,23.62
2019-01-21T01:29:15.949Z,20.00
2019-01-21T01:34:21.698Z,21.48
2019-01-21T01:39:27.585Z,21.57
2019-01-21T01:44:33.676Z,20.95
2019-01-21T01:49:39.640Z,20.93
2019-01-21T01:54:45.932Z,21.37
2019-01-21T01:59:52.092Z,19.93
2019-01-21T02:04:57.772Z,17.33
2019-01-21T02:10:04.782Z,16.87
2019-01-21T02:15:12.469Z,16.57
2019-01-21T02:20:19.266Z,15.98
2019-01-21T02:25:43.354Z,14.47
2019-01-21T02:31:01.415Z,14.53
2019-01-21T02:36:18.961Z,15.80
2019-01-21T02:41:29.466Z,14.57
2019-01-21T02:46:45.123Z,14.97
2019-01-21T02:52:09.132Z,14.77
2019-01-21T02:57:18.703Z,13.03
2019-01-21T03:02:35.860Z,15.03
2019-01-21T03:08:00.159Z,14.27
2019-01-21T03:13:25.969Z,13.80
2019-01-21T03:18:50.111Z,12.80
2019-01-21T03:24:14.220Z,12.83
2019-01-21T03:29:32.074Z,13.40
2019-01-21T03:34:53.113Z,14.70
2019-01-21T03:40:08.130Z,12.68
2019-01-21T03:45:32.248Z,13.32
2019-01-21T03:50:57.451Z,14.07
2019-01-21T03:56:06.012Z,13.83
2019-01-21T04:01:24.044Z,14.73
2019-01-21T04:06:36.163Z,15.40
2019-01-21T04:11:47.873Z,13.40
2019-01-21T04:17:03.671Z,13.67
2019-01-21T04:22:14.719Z,14.60
2019-01-21T04:27:27.337Z,13.40
2019-01-21T04:32:48.341Z,14.77
2019-01-21T04:38:03.225Z,14.97
2019-01-21T04:43:12.289Z,15.50
2019-01-21T04:48:37.368Z,14.47
2019-01-21T04:54:02.794Z,12.90
2019-01-21T04:59:15.213Z,12.83
2019-01-21T05:04:24.468Z,12.78
2019-01-21T05:10:11.919Z,12.37
2019-01-21T05:15:56.084Z,12.78
2019-01-21T05:21:20.275Z,14.17
2019-01-21T05:27:02.734Z,14.17
2019-01-21T05:32:21.098Z,14.38
2019-01-21T05:37:43.640Z,13.00
2019-01-21T05:43:03.677Z,12.17
2019-01-21T05:48:24.601Z,11.78
2019-01-21T05:53:45.838Z,12.57
2019-01-21T05:58:55.048Z,13.20
2019-01-21T06:04:29.568Z,13.00
2019-01-21T06:09:41.707Z,12.20
2019-01-21T06:15:22.513Z,13.00
2019-01-21T06:20:42.657Z,12.93
2019-01-21T06:26:30.477Z,13.67
2019-01-21T06:31:44.971Z,12.60
2019-01-21T06:37:18.244Z,13.17
2019-01-21T06:42:30.051Z,15.67
2019-01-21T06:47:57.096Z,16.40
2019-01-21T06:53:18.243Z,38.40
2019-01-21T06:58:30.253Z,22.83
2019-01-21T07:03:56.104Z,22.53
2019-01-21T07:09:14.648Z,21.20
2019-01-21T07:14:44.225Z,17.20
2019-01-21T07:20:02.158Z,14.67
2019-01-21T07:25:20.610Z,15.00
2019-01-21T07:30:59.986Z,16.23
2019-01-21T07:36:33.789Z,15.63
2019-01-21T07:41:52.098Z,16.33
2019-01-21T07:47:15.250Z,17.73
2019-01-21T07:53:04.128Z,16.97
2019-01-21T07:58:31.708Z,16.00
2019-01-21T08:04:00.424Z,18.17
2019-01-21T08:09:15.305Z,16.07
2019-01-21T08:14:40.798Z,15.13
2019-01-21T08:20:03.801Z,18.47
2019-01-21T08:25:23.798Z,15.43
2019-01-21T08:30:41.982Z,15.60
2019-01-21T08:36:10.648Z,13.43
2019-01-21T08:41:28.510Z,27.85
2019-01-21T08:46:52.814Z,36.60
2019-01-21T08:52:13.792Z,17.80
2019-01-21T08:57:41.407Z,16.33
2019-01-21T09:02:54.926Z,13.13
2019-01-21T09:08:25.676Z,17.30
2019-01-21T09:13:38.099Z,17.70
2019-01-21T09:18:53.245Z,17.20
2019-01-21T09:24:34.528Z,16.10
2019-01-21T09:30:06.064Z,14.63
2019-01-21T09:35:36.579Z,14.20
2019-01-21T09:41:18.868Z,16.37
2019-01-21T09:46:28.021Z,16.97
2019-01-21T09:51:33.863Z,15.57
2019-01-21T09:56:41.455Z,18.13
2019-01-21T10:01:47.604Z,14.27
2019-01-21T10:06:56.643Z,22.57
2019-01-21T10:12:28.101Z,22.17
2019-01-21T10:17:52.192Z,17.13
2019-01-21T10:23:17.593Z,17.97
2019-01-21T10:28:35.461Z,18.03
2019-01-21T10:33:59.467Z,39.70
2019-01-21T10:39:37.825Z,14.55
2019-01-21T10:44:53.272Z,20.80
2019-01-21T10:50:14.309Z,14.47
2019-01-21T10:55:44.448Z,14.65
2019-01-21T11:01:08.967Z,14.03
2019-01-21T11:06:32.169Z,14.67
2019-01-21T11:11:57.881Z,17.23
2019-01-21T11:17:29.576Z,15.67
2019-01-21T11:22:49.372Z,14.53
2019-01-21T11:28:01.553Z,15.63
2019-01-21T11:33:34.030Z,19.07
2019-01-21T11:38:50.854Z,15.07
2019-01-21T11:44:24.480Z,18.67
2019-01-21T11:49:42.879Z,15.43
2019-01-21T11:54:57.826Z,19.00
2019-01-21T12:00:16.015Z,17.47
2019-01-21T12:05:34.694Z,20.03
2019-01-21T12:11:06.523Z,18.63
2019-01-21T12:16:44.495Z,14.77
2019-01-21T12:22:27.027Z,19.50
2019-01-21T12:27:44.986Z,13.20
2019-01-21T12:33:09.262Z,14.37
2019-01-21T12:38:41.684Z,15.63
2019-01-21T12:44:02.928Z,17.40
2019-01-21T12:49:23.744Z,17.47
2019-01-21T12:54:40.728Z,20.37
2019-01-21T12:59:55.869Z,17.03
2019-01-21T13:05:07.769Z,16.20
2019-01-21T13:10:29.009Z,16.23
2019-01-21T13:15:59.145Z,15.73
2019-01-21T13:21:43.334Z,19.90
2019-01-21T13:27:07.616Z,17.03
2019-01-21T13:32:22.408Z,20.62
2019-01-21T13:37:46.893Z,14.17
2019-01-21T13:43:02.858Z,16.07
2019-01-21T13:48:17.023Z,17.57
2019-01-21T13:53:38.391Z,15.23
2019-01-21T13:59:13.346Z,15.57
2019-01-21T14:04:40.828Z,20.68
2019-01-21T14:09:58.731Z,36.43
2019-01-21T14:15:27.461Z,17.30
2019-01-21T14:20:45.610Z,50.97
2019-01-21T14:26:08.341Z,46.90
2019-01-21T14:31:19.643Z,26.90
2019-01-21T14:36:32.666Z,51.50
2019-01-21T14:42:18.431Z,45.53
2019-01-21T14:47:52.887Z,31.27
2019-01-21T14:53:19.872Z,32.70
2019-01-21T14:58:45.319Z,42.60
2019-01-21T15:04:16.569Z,24.80
2019-01-21T15:09:44.973Z,19.57
2019-01-21T15:15:12.143Z,28.03
2019-01-21T15:20:21.223Z,31.07
2019-01-21T15:25:30.271Z,33.07
2019-01-21T15:30:45.174Z,27.07
2019-01-21T15:36:11.262Z,24.40
2019-01-21T15:41:29.530Z,27.87
2019-01-21T15:46:53.500Z,54.70
2019-01-21T15:52:11.407Z,44.10
2019-01-21T15:57:21.643Z,37.45
2019-01-21T16:02:36.454Z,24.10
2019-01-21T16:07:47.341Z,25.57
2019-01-21T16:13:05.209Z,29.67
2019-01-21T16:18:17.191Z,39.60
2019-01-21T16:23:41.041Z,35.25
2019-01-21T16:28:53.151Z,44.47
2019-01-21T16:34:12.303Z,42.50
2019-01-21T16:39:27.427Z,38.17
2019-01-21T16:44:33.309Z,28.53
2019-01-21T16:49:39.286Z,35.63
2019-01-21T16:54:45.484Z,42.20
2019-01-21T16:59:51.515Z,34.78
2019-01-21T17:04:57.548Z,35.37
2019-01-21T17:10:03.828Z,42.17
2019-01-21T17:15:11.983Z,32.53
2019-01-21T17:20:21.341Z,30.70
2019-01-21T17:25:27.047Z,26.90
2019-01-21T17:30:32.908Z,36.50
2019-01-21T17:35:39.013Z,54.63
2019-01-21T17:40:45.286Z,151.60
2019-01-21T17:45:51.260Z,142.63
2019-01-21T17:50:57.554Z,70.87
2019-01-21T17:56:03.701Z,40.93
2019-01-21T18:01:09.671Z,40.23
2019-01-21T18:06:15.876Z,24.77
2019-01-21T18:11:22.319Z,32.30
2019-01-21T18:16:28.384Z,27.37
2019-01-21T18:21:39.942Z,33.40
2019-01-21T18:26:41.994Z,66.90
2019-01-21T18:31:47.863Z,32.17
2019-01-21T18:36:53.913Z,30.10
2019-01-21T18:42:00.156Z,83.00
2019-01-21T18:47:06.262Z,70.63
2019-01-21T18:52:12.269Z,50.43
2019-01-21T18:57:18.346Z,58.58
2019-01-21T19:02:24.225Z,49.17
2019-01-21T19:07:30.080Z,42.13
2019-01-21T19:12:36.377Z,37.03
2019-01-21T19:17:42.366Z,50.33
2019-01-21T19:22:48.337Z,31.70
2019-01-21T19:27:54.273Z,27.80
2019-01-21T19:33:00.505Z,45.93
2019-01-21T19:38:06.560Z,32.83
2019-01-21T19:43:12.949Z,58.98
2019-01-21T19:48:19.105Z,30.73
2019-01-21T19:53:26.051Z,35.23
2019-01-21T19:58:32.065Z,36.23
2019-01-21T20:03:38.137Z,49.80
2019-01-21T20:08:44.210Z,33.10
2019-01-21T20:13:51.648Z,38.43
2019-01-21T20:18:57.782Z,34.10
2019-01-21T20:24:05.825Z,37.33
2019-01-21T20:29:11.803Z,48.55
2019-01-21T20:34:17.774Z,33.95
2019-01-21T20:39:23.671Z,36.53
2019-01-21T20:44:29.714Z,32.73
2019-01-21T20:49:35.503Z,28.17
2019-01-21T20:54:41.445Z,27.37
2019-01-21T20:59:47.424Z,31.80
2019-01-21T21:04:53.530Z,33.23
2019-01-21T21:09:59.495Z,31.60
2019-01-21T21:15:22.229Z,31.43
2019-01-21T21:20:28.321Z,33.37
2019-01-21T21:25:34.456Z,41.17
2019-01-21T21:30:40.344Z,39.27
2019-01-21T21:35:46.960Z,32.80
2019-01-21T21:40:54.008Z,31.63
2019-01-21T21:46:01.863Z,31.67
2019-01-21T21:51:08.276Z,36.93
2019-01-21T21:56:14.552Z,31.57
2019-01-21T22:01:24.075Z,33.15
2019-01-21T22:06:28.077Z,30.17
2019-01-21T22:11:34.066Z,29.17
2019-01-21T22:16:40.115Z,44.30
2019-01-21T22:21:46.141Z,34.50
2019-01-21T22:26:51.926Z,30.50
2019-01-21T22:31:57.687Z,32.77
2019-01-21T22:37:03.619Z,35.93
2019-01-21T22:42:09.539Z,42.93
2019-01-21T22:47:15.389Z,34.80
2019-01-21T22:52:21.292Z,39.13
2019-01-21T22:57:27.570Z,36.03
2019-01-21T23:02:34.161Z,29.27
2019-01-21T23:07:40.225Z,31.30
2019-01-21T23:12:46.189Z,29.03
2019-01-21T23:17:52.078Z,28.83
2019-01-21T23:22:58.014Z,31.53
2019-01-21T23:28:05.331Z,49.60
2019-01-21T23:33:11.188Z,27.63
2019-01-21T23:38:17.184Z,31.73
2019-01-21T23:43:23.102Z,30.15
2019-01-21T23:48:29.653Z,29.63
2019-01-21T23:53:35.830Z,30.23
2019-01-21T23:58:42.093Z,35.00
